createdAt,value
2018-12-02T00:00:58.955Z,100830.28
2018-12-02T00:01:59.595Z,100828.98
2018-12-02T00:03:00.115Z,100827.69
2018-12-02T00:04:00.711Z,100825.75
2018-12-02T00:05:01.152Z,100824.29
2018-12-02T00:06:01.657Z,100822.41
2018-12-02T00:07:02.053Z,100820.89
2018-12-02T00:08:02.679Z,100818.83
2018-12-02T00:09:02.255Z,100817.88
2018-12-02T00:10:04.054Z,100815.68
2018-12-02T00:11:04.787Z,100814.13
2018-12-02T00:12:05.290Z,100812.70
2018-12-02T00:13:05.858Z,100811.15
2018-12-02T00:14:06.327Z,100809.77
2018-12-02T00:15:06.755Z,100808.00
2018-12-02T00:16:07.188Z,100806.48
2018-12-02T00:17:06.806Z,100805.69
2018-12-02T00:18:08.323Z,100803.80
2018-12-02T00:19:08.723Z,100801.70
2018-12-02T00:20:09.262Z,100799.94
2018-12-02T00:21:09.633Z,100798.84
2018-12-02T00:22:10.194Z,100797.72
2018-12-02T00:23:09.767Z,100796.59
2018-12-02T00:24:11.442Z,100795.55
2018-12-02T00:25:12.102Z,100794.02
2018-12-02T00:26:12.570Z,100792.26
2018-12-02T00:27:13.143Z,100790.88
2018-12-02T00:28:13.542Z,100789.45
2018-12-02T00:29:13.912Z,100787.67
2018-12-02T00:30:14.469Z,100786.21
2018-12-02T00:30:29.526Z,100768.75
2018-12-02T00:31:30.088Z,100768.50
2018-12-02T00:32:30.708Z,100768.33
2018-12-02T00:33:31.079Z,100767.91
2018-12-02T00:34:31.606Z,100767.16
2018-12-02T00:35:31.298Z,100766.82
2018-12-02T00:36:32.972Z,100765.39
2018-12-02T00:37:33.467Z,100764.52
2018-12-02T00:38:34.240Z,100763.83
2018-12-02T00:39:34.704Z,100763.13
2018-12-02T00:40:35.138Z,100761.91
2018-12-02T00:41:34.690Z,100761.20
2018-12-02T00:42:35.210Z,100760.83
2018-12-02T00:43:36.586Z,100759.81
2018-12-02T00:44:37.060Z,100759.36
2018-12-02T00:45:37.464Z,100758.31
2018-12-02T00:46:37.860Z,100757.55
2018-12-02T00:47:38.253Z,100756.34
2018-12-02T00:48:38.619Z,100755.63
2018-12-02T00:49:38.719Z,100755.47
2018-12-02T00:50:39.159Z,100754.63
2018-12-02T00:51:39.499Z,100753.70
2018-12-02T00:52:39.994Z,100752.23
2018-12-02T00:53:40.390Z,100751.36
2018-12-02T00:54:39.911Z,100750.78
2018-12-02T00:55:41.237Z,100749.91
2018-12-02T00:56:41.593Z,100749.19
2018-12-02T00:57:42.052Z,100747.25
2018-12-02T00:58:42.494Z,100747.02
2018-12-02T00:59:42.875Z,100745.66
2018-12-02T01:00:43.424Z,100745.37
2018-12-02T01:01:44.075Z,100745.03
2018-12-02T01:02:43.645Z,100744.06
2018-12-02T01:03:45.442Z,100744.06
2018-12-02T01:04:45.921Z,100743.30
2018-12-02T01:05:46.319Z,100742.52
2018-12-02T01:06:46.724Z,100742.17
2018-12-02T01:07:47.376Z,100741.17
2018-12-02T01:08:46.875Z,100740.66
2018-12-02T01:09:48.540Z,100740.16
2018-12-02T01:10:48.247Z,100738.98
2018-12-02T01:11:49.734Z,100738.64
2018-12-02T01:12:49.347Z,100737.58
2018-12-02T01:13:50.903Z,100736.91
2018-12-02T01:14:50.242Z,100736.40
2018-12-02T01:15:51.797Z,100735.55
2018-12-02T01:16:52.306Z,100734.88
2018-12-02T01:17:52.868Z,100734.38
2018-12-02T01:18:53.310Z,100733.53
2018-12-02T01:19:53.671Z,100732.91
2018-12-02T01:20:53.998Z,100731.56
2018-12-02T01:21:02.428Z,100719.59
2018-12-02T01:22:03.982Z,100718.84
2018-12-02T01:23:04.317Z,100718.16
2018-12-02T01:24:04.673Z,100718.25
2018-12-02T01:25:05.104Z,100717.16
2018-12-02T01:26:05.517Z,100716.23
2018-12-02T01:27:05.990Z,100715.38
2018-12-02T01:28:06.431Z,100714.63
2018-12-02T01:29:06.897Z,100714.03
2018-12-02T01:30:07.261Z,100712.34
2018-12-02T01:31:07.609Z,100711.39
2018-12-02T01:32:08.202Z,100710.12
2018-12-02T01:33:07.999Z,100709.53
2018-12-02T01:34:09.465Z,100708.27
2018-12-02T01:35:10.054Z,100706.97
2018-12-02T01:36:10.764Z,100705.70
2018-12-02T01:37:11.563Z,100704.83
2018-12-02T01:38:11.948Z,100703.05
2018-12-02T01:39:12.280Z,100701.80
2018-12-02T01:40:12.734Z,100700.53
2018-12-02T01:41:13.436Z,100699.48
2018-12-02T01:42:12.876Z,100698.05
2018-12-02T01:43:14.740Z,100696.41
2018-12-02T01:44:14.099Z,100695.45
2018-12-02T01:45:15.791Z,100694.39
2018-12-02T01:46:14.771Z,100693.34
2018-12-02T01:47:16.230Z,100691.88
2018-12-02T01:48:16.628Z,100690.32
2018-12-02T01:49:16.955Z,100688.69
2018-12-02T01:50:17.355Z,100687.41
2018-12-02T01:51:17.711Z,100686.20
2018-12-02T01:52:18.267Z,100684.68
2018-12-02T01:53:18.403Z,100683.38
2018-12-02T01:54:18.972Z,100682.37
2018-12-02T01:55:19.863Z,100681.06
2018-12-02T01:56:19.506Z,100679.97
2018-12-02T01:57:20.969Z,100679.38
2018-12-02T01:58:21.775Z,100678.28
2018-12-02T01:59:22.643Z,100677.11
2018-12-02T02:00:23.304Z,100675.92
2018-12-02T02:01:22.756Z,100675.08
2018-12-02T02:02:24.233Z,100673.91
2018-12-02T02:03:24.679Z,100673.11
2018-12-02T02:04:25.071Z,100672.09
2018-12-02T02:05:25.647Z,100670.75
2018-12-02T02:06:26.056Z,100669.99
2018-12-02T02:07:26.716Z,100668.47
2018-12-02T02:08:26.189Z,100667.30
2018-12-02T02:09:27.581Z,100665.83
2018-12-02T02:10:28.012Z,100664.55
2018-12-02T02:11:27.593Z,100663.42
2018-12-02T02:11:35.640Z,100634.30
2018-12-02T02:12:37.110Z,100634.72
2018-12-02T02:13:37.536Z,100635.40
2018-12-02T02:14:37.565Z,100635.82
2018-12-02T02:15:38.014Z,100636.66
2018-12-02T02:16:38.407Z,100637.34
2018-12-02T02:17:38.781Z,100637.76
2018-12-02T02:18:39.137Z,100637.89
2018-12-02T02:19:39.534Z,100637.80
2018-12-02T02:20:38.853Z,100637.55
2018-12-02T02:21:40.287Z,100637.27
2018-12-02T02:22:40.678Z,100636.84
2018-12-02T02:23:41.107Z,100636.08
2018-12-02T02:24:41.462Z,100635.06
2018-12-02T02:25:41.921Z,100634.64
2018-12-02T02:26:42.302Z,100633.72
2018-12-02T02:27:42.646Z,100633.37
2018-12-02T02:28:42.980Z,100632.79
2018-12-02T02:29:43.327Z,100632.20
2018-12-02T02:30:43.752Z,100631.48
2018-12-02T02:31:44.272Z,100630.98
2018-12-02T02:32:44.585Z,100630.13
2018-12-02T02:33:44.910Z,100629.20
2018-12-02T02:34:45.153Z,100628.36
2018-12-02T02:35:45.467Z,100627.27
2018-12-02T02:36:45.918Z,100626.05
2018-12-02T02:37:46.189Z,100624.36
2018-12-02T02:38:46.609Z,100623.09
2018-12-02T02:39:46.968Z,100621.50
2018-12-02T02:40:47.457Z,100619.34
2018-12-02T02:41:47.863Z,100617.41
2018-12-02T02:42:48.282Z,100615.30
2018-12-02T02:43:48.726Z,100613.37
2018-12-02T02:44:49.075Z,100611.80
2018-12-02T02:45:49.590Z,100610.63
2018-12-02T02:46:50.013Z,100609.44
2018-12-02T02:47:50.349Z,100607.67
2018-12-02T02:48:50.695Z,100605.57
2018-12-02T02:49:51.119Z,100604.39
2018-12-02T02:50:51.551Z,100602.53
2018-12-02T02:51:52.034Z,100601.02
2018-12-02T02:52:52.988Z,100599.41
2018-12-02T02:53:53.298Z,100597.56
2018-12-02T02:54:53.766Z,100595.71
2018-12-02T02:55:53.833Z,100593.52
2018-12-02T02:56:02.275Z,100567.40
2018-12-02T02:57:03.599Z,100566.31
2018-12-02T02:58:03.942Z,100566.47
2018-12-02T02:59:04.235Z,100566.56
2018-12-02T03:00:04.655Z,100565.80
2018-12-02T03:01:05.082Z,100565.30
2018-12-02T03:02:05.517Z,100564.61
2018-12-02T03:03:05.868Z,100563.94
2018-12-02T03:04:06.479Z,100563.27
2018-12-02T03:05:07.041Z,100562.42
2018-12-02T03:06:07.624Z,100561.00
2018-12-02T03:07:08.010Z,100559.91
2018-12-02T03:08:08.455Z,100559.34
2018-12-02T03:09:08.890Z,100558.42
2018-12-02T03:10:09.450Z,100558.13
2018-12-02T03:11:09.884Z,100557.41
2018-12-02T03:12:10.215Z,100557.12
2018-12-02T03:13:10.631Z,100556.81
2018-12-02T03:14:11.235Z,100555.60
2018-12-02T03:15:11.581Z,100555.14
2018-12-02T03:16:12.082Z,100554.17
2018-12-02T03:17:12.469Z,100552.48
2018-12-02T03:18:12.889Z,100550.67
2018-12-02T03:19:12.246Z,100549.40
2018-12-02T03:20:13.924Z,100547.96
2018-12-02T03:21:14.308Z,100546.33
2018-12-02T03:22:14.692Z,100545.05
2018-12-02T03:23:14.819Z,100544.26
2018-12-02T03:24:15.388Z,100543.49
2018-12-02T03:25:16.286Z,100543.41
2018-12-02T03:26:15.598Z,100542.48
2018-12-02T03:27:17.091Z,100542.14
2018-12-02T03:28:16.373Z,100541.38
2018-12-02T03:29:17.801Z,100540.70
2018-12-02T03:30:18.246Z,100540.11
2018-12-02T03:31:18.625Z,100539.18
2018-12-02T03:32:19.119Z,100538.00
2018-12-02T03:33:19.484Z,100537.16
2018-12-02T03:34:19.928Z,100536.81
2018-12-02T03:35:52.450Z,100526.19
2018-12-02T03:36:52.133Z,100525.94
2018-12-02T03:37:53.552Z,100526.11
2018-12-02T03:38:53.986Z,100526.02
2018-12-02T03:39:54.372Z,100526.14
2018-12-02T03:40:54.801Z,100525.98
2018-12-02T03:41:55.394Z,100525.50
2018-12-02T03:42:56.048Z,100525.93
2018-12-02T03:43:56.478Z,100525.37
2018-12-02T03:44:56.924Z,100524.74
2018-12-02T03:45:57.280Z,100524.70
2018-12-02T03:46:57.699Z,100524.06
2018-12-02T03:47:58.175Z,100524.02
2018-12-02T03:48:58.692Z,100524.11
2018-12-02T03:49:59.158Z,100524.06
2018-12-02T03:50:59.656Z,100523.43
2018-12-02T03:51:59.953Z,100522.63
2018-12-02T03:53:00.303Z,100522.24
2018-12-02T03:54:00.818Z,100521.44
2018-12-02T03:55:01.285Z,100520.64
2018-12-02T03:56:01.776Z,100519.38
2018-12-02T03:57:02.134Z,100518.66
2018-12-02T03:58:02.520Z,100517.38
2018-12-02T03:59:02.931Z,100516.50
2018-12-02T04:00:03.355Z,100515.39
2018-12-02T04:01:02.813Z,100514.67
2018-12-02T04:02:05.211Z,100513.41
2018-12-02T04:03:04.604Z,100512.27
2018-12-02T04:04:05.039Z,100511.42
2018-12-02T04:05:05.394Z,100510.78
2018-12-02T04:06:05.848Z,100510.48
2018-12-02T04:07:06.289Z,100509.77
2018-12-02T04:08:06.735Z,100508.63
2018-12-02T04:09:07.240Z,100507.87
2018-12-02T04:10:07.713Z,100506.35
2018-12-02T04:11:08.275Z,100505.22
2018-12-02T04:12:08.627Z,100503.91
2018-12-02T04:13:08.068Z,100502.85
2018-12-02T04:14:09.766Z,100501.29
2018-12-02T04:15:10.158Z,100499.70
2018-12-02T04:16:10.618Z,100498.39
2018-12-02T04:17:11.356Z,100496.48
2018-12-02T04:18:12.021Z,100494.22
2018-12-02T04:19:12.541Z,100492.66
2018-12-02T04:20:12.947Z,100490.73
2018-12-02T04:21:13.409Z,100488.37
2018-12-02T04:22:14.006Z,100485.43
2018-12-02T04:23:14.461Z,100483.86
2018-12-02T04:23:22.546Z,100453.08
2018-12-02T04:24:23.928Z,100452.32
2018-12-02T04:25:24.392Z,100452.41
2018-12-02T04:26:24.727Z,100452.06
2018-12-02T04:27:25.026Z,100451.39
2018-12-02T04:28:26.389Z,100450.89
2018-12-02T04:29:25.853Z,100450.05
2018-12-02T04:30:26.373Z,100449.30
2018-12-02T04:31:26.917Z,100449.22
2018-12-02T04:32:27.396Z,100448.70
2018-12-02T04:33:27.746Z,100448.03
2018-12-02T04:34:28.100Z,100446.86
2018-12-02T04:35:28.632Z,100445.84
2018-12-02T04:36:28.935Z,100445.43
2018-12-02T04:37:29.413Z,100444.92
2018-12-02T04:38:29.838Z,100443.86
2018-12-02T04:39:30.147Z,100443.36
2018-12-02T04:40:30.490Z,100442.69
2018-12-02T04:41:30.813Z,100442.31
2018-12-02T04:42:31.105Z,100442.06
2018-12-02T04:43:31.503Z,100441.64
2018-12-02T04:44:32.036Z,100441.35
2018-12-02T04:45:32.404Z,100440.93
2018-12-02T04:46:32.734Z,100440.42
2018-12-02T04:47:33.055Z,100440.34
2018-12-02T04:48:33.754Z,100439.89
2018-12-02T04:49:34.044Z,100439.12
2018-12-02T04:50:34.890Z,100439.20
2018-12-02T04:51:35.796Z,100438.88
2018-12-02T04:52:36.221Z,100438.53
2018-12-02T04:53:36.646Z,100437.78
2018-12-02T04:54:37.013Z,100437.78
2018-12-02T04:55:37.330Z,100437.36
2018-12-02T04:56:37.633Z,100437.02
2018-12-02T04:57:38.211Z,100437.31
2018-12-02T04:58:38.770Z,100436.55
2018-12-02T04:59:39.164Z,100436.55
2018-12-02T05:00:39.580Z,100436.30
2018-12-02T05:01:39.915Z,100436.09
2018-12-02T05:02:40.430Z,100435.33
2018-12-02T05:03:40.764Z,100434.75
2018-12-02T05:04:41.180Z,100434.24
2018-12-02T05:05:41.726Z,100433.15
2018-12-02T05:06:42.019Z,100432.42
2018-12-02T05:07:42.299Z,100431.50
2018-12-02T05:08:42.712Z,100430.66
2018-12-02T05:08:51.061Z,100416.45
2018-12-02T05:09:52.258Z,100416.28
2018-12-02T05:10:52.771Z,100416.28
2018-12-02T05:11:53.234Z,100416.03
2018-12-02T05:12:54.196Z,100415.86
2018-12-02T05:13:54.832Z,100415.27
2018-12-02T05:14:55.067Z,100414.52
2018-12-02T05:15:55.439Z,100413.84
2018-12-02T05:16:55.744Z,100413.00
2018-12-02T05:17:56.105Z,100412.50
2018-12-02T05:18:56.494Z,100411.83
2018-12-02T05:19:56.802Z,100410.73
2018-12-02T05:20:57.319Z,100409.72
2018-12-02T05:21:57.645Z,100408.88
2018-12-02T05:22:57.953Z,100407.58
2018-12-02T05:23:58.346Z,100406.56
2018-12-02T05:24:58.640Z,100405.19
2018-12-02T05:25:59.087Z,100403.92
2018-12-02T05:26:59.533Z,100402.32
2018-12-02T05:27:59.860Z,100401.61
2018-12-02T05:28:59.477Z,100399.84
2018-12-02T05:30:00.773Z,100398.74
2018-12-02T05:31:01.243Z,100397.45
2018-12-02T05:32:06.781Z,100396.35
2018-12-02T05:33:02.449Z,100395.09
2018-12-02T05:34:02.769Z,100393.41
2018-12-02T05:35:03.093Z,100392.81
2018-12-02T05:36:03.605Z,100390.68
2018-12-02T05:37:03.975Z,100389.16
2018-12-02T05:38:04.340Z,100387.78
2018-12-02T05:39:04.869Z,100386.59
2018-12-02T05:40:04.342Z,100385.30
2018-12-02T05:41:05.815Z,100383.45
2018-12-02T05:42:08.424Z,100381.68
2018-12-02T05:43:07.960Z,100380.13
2018-12-02T05:44:12.516Z,100379.03
2018-12-02T05:45:07.957Z,100377.65
2018-12-02T05:46:08.422Z,100375.55
2018-12-02T05:47:08.497Z,100374.19
2018-12-02T05:48:09.278Z,100372.64
2018-12-02T05:49:09.815Z,100371.42
2018-12-02T05:50:10.440Z,100369.91
2018-12-02T05:51:10.808Z,100368.19
2018-12-02T05:52:11.183Z,100366.84
2018-12-02T05:53:11.540Z,100366.04
2018-12-02T05:54:11.914Z,100364.36
2018-12-02T05:55:12.193Z,100363.22
2018-12-02T05:56:12.917Z,100361.75
2018-12-02T05:57:13.212Z,100360.87
2018-12-02T05:57:21.732Z,100344.52
2018-12-02T05:58:23.082Z,100343.93
2018-12-02T05:59:23.659Z,100343.77
2018-12-02T06:00:24.078Z,100343.77
2018-12-02T06:01:24.590Z,100343.09
2018-12-02T06:02:25.064Z,100342.37
2018-12-02T06:03:25.491Z,100341.70
2018-12-02T06:04:25.894Z,100341.41
2018-12-02T06:05:26.322Z,100341.07
2018-12-02T06:06:26.780Z,100340.73
2018-12-02T06:07:27.165Z,100340.56
2018-12-02T06:08:27.738Z,100340.23
2018-12-02T06:09:28.190Z,100340.48
2018-12-02T06:10:28.604Z,100340.22
2018-12-02T06:11:29.074Z,100339.97
2018-12-02T06:12:29.549Z,100339.93
2018-12-02T06:13:30.072Z,100339.84
2018-12-02T06:14:30.406Z,100339.59
2018-12-02T06:15:31.045Z,100340.05
2018-12-02T06:16:31.691Z,100340.05
2018-12-02T06:17:32.104Z,100340.14
2018-12-02T06:18:32.479Z,100340.19
2018-12-02T06:19:32.939Z,100340.34
2018-12-02T06:20:33.438Z,100340.81
2018-12-02T06:21:33.999Z,100341.06
2018-12-02T06:22:34.502Z,100341.06
2018-12-02T06:23:35.119Z,100340.94
2018-12-02T06:24:35.536Z,100340.91
2018-12-02T06:25:36.036Z,100340.81
2018-12-02T06:26:36.470Z,100341.11
2018-12-02T06:27:36.892Z,100340.78
2018-12-02T06:28:37.242Z,100340.86
2018-12-02T06:29:37.581Z,100340.35
2018-12-02T06:30:38.047Z,100340.27
2018-12-02T06:31:38.674Z,100339.93
2018-12-02T06:32:39.024Z,100339.59
2018-12-02T06:33:39.491Z,100339.25
2018-12-02T06:34:39.875Z,100339.09
2018-12-02T06:35:40.334Z,100338.92
2018-12-02T06:36:41.120Z,100339.09
2018-12-02T06:37:40.082Z,100338.50
2018-12-02T06:38:41.475Z,100338.50
2018-12-02T06:39:41.924Z,100338.75
2018-12-02T06:40:42.368Z,100338.83
2018-12-02T06:41:42.842Z,100338.66
2018-12-02T06:42:43.253Z,100338.87
2018-12-02T06:43:43.706Z,100338.71
2018-12-02T06:43:52.376Z,100328.61
2018-12-02T06:44:52.736Z,100328.19
2018-12-02T06:45:53.421Z,100328.86
2018-12-02T06:46:53.819Z,100329.70
2018-12-02T06:47:54.668Z,100329.29
2018-12-02T06:48:55.064Z,100329.80
2018-12-02T06:49:55.550Z,100329.80
2018-12-02T06:50:56.078Z,100329.96
2018-12-02T06:51:56.460Z,100329.58
2018-12-02T06:52:56.823Z,100329.41
2018-12-02T06:53:57.400Z,100329.07
2018-12-02T06:54:57.872Z,100328.78
2018-12-02T06:55:58.423Z,100328.19
2018-12-02T06:56:59.134Z,100327.94
2018-12-02T06:57:59.851Z,100327.90
2018-12-02T06:59:00.240Z,100327.64
2018-12-02T07:00:00.669Z,100327.05
2018-12-02T07:01:01.125Z,100326.62
2018-12-02T07:02:01.610Z,100326.76
2018-12-02T07:03:02.027Z,100327.01
2018-12-02T07:04:02.490Z,100326.25
2018-12-02T07:05:02.945Z,100325.96
2018-12-02T07:06:03.515Z,100325.63
2018-12-02T07:07:04.212Z,100325.53
2018-12-02T07:08:04.971Z,100325.11
2018-12-02T07:09:05.477Z,100324.83
2018-12-02T07:10:05.836Z,100324.91
2018-12-02T07:11:06.321Z,100324.82
2018-12-02T07:12:06.799Z,100324.65
2018-12-02T07:13:07.314Z,100324.56
2018-12-02T07:14:07.835Z,100324.39
2018-12-02T07:15:08.627Z,100324.45
2018-12-02T07:16:09.264Z,100323.72
2018-12-02T07:17:09.953Z,100323.89
2018-12-02T07:18:09.325Z,100323.72
2018-12-02T07:19:10.852Z,100323.39
2018-12-02T07:20:11.293Z,100323.05
2018-12-02T07:21:11.908Z,100322.55
2018-12-02T07:22:12.382Z,100322.26
2018-12-02T07:23:12.833Z,100321.59
2018-12-02T07:24:13.335Z,100321.25
2018-12-02T07:25:14.014Z,100321.42
2018-12-02T07:26:14.733Z,100320.70
2018-12-02T07:27:15.351Z,100319.94
2018-12-02T07:28:15.967Z,100319.35
2018-12-02T07:29:16.597Z,100319.02
2018-12-02T07:29:25.092Z,100303.73
2018-12-02T07:30:26.037Z,100303.48
2018-12-02T07:31:26.621Z,100304.08
2018-12-02T07:32:27.073Z,100304.29
2018-12-02T07:33:27.593Z,100303.45
2018-12-02T07:34:28.162Z,100303.53
2018-12-02T07:35:28.678Z,100303.36
2018-12-02T07:36:29.172Z,100302.90
2018-12-02T07:37:29.478Z,100303.23
2018-12-02T07:38:30.448Z,100302.47
2018-12-02T07:39:31.921Z,100301.76
2018-12-02T07:40:30.259Z,100300.91
2018-12-02T07:41:31.725Z,100300.70
2018-12-02T07:42:32.242Z,100299.95
2018-12-02T07:43:32.677Z,100300.08
2018-12-02T07:44:33.484Z,100299.91
2018-12-02T07:45:34.048Z,100299.28
2018-12-02T07:46:33.601Z,100298.43
2018-12-02T07:47:35.099Z,100298.05
2018-12-02T07:48:35.730Z,100297.96
2018-12-02T07:49:36.433Z,100297.59
2018-12-02T07:50:36.814Z,100297.30
2018-12-02T07:51:37.297Z,100296.95
2018-12-02T07:52:37.620Z,100297.16
2018-12-02T07:53:38.006Z,100296.95
2018-12-02T07:54:38.411Z,100297.00
2018-12-02T07:55:38.725Z,100297.07
2018-12-02T07:56:39.050Z,100296.53
2018-12-02T07:57:39.410Z,100295.56
2018-12-02T07:58:39.791Z,100295.18
2018-12-02T07:59:40.187Z,100294.55
2018-12-02T08:00:40.548Z,100294.17
2018-12-02T08:01:41.048Z,100293.28
2018-12-02T08:02:41.471Z,100292.39
2018-12-02T08:03:41.907Z,100290.84
2018-12-02T08:04:43.347Z,100289.86
2018-12-02T08:05:42.723Z,100287.97
2018-12-02T08:06:43.027Z,100286.96
2018-12-02T08:07:43.371Z,100285.48
2018-12-02T08:08:43.746Z,100284.17
2018-12-02T08:09:43.138Z,100282.91
2018-12-02T08:10:44.551Z,100280.78
2018-12-02T08:11:44.923Z,100278.77
2018-12-02T08:12:45.502Z,100276.78
2018-12-02T08:13:45.811Z,100275.22
2018-12-02T08:14:46.137Z,100273.53
2018-12-02T08:14:54.198Z,100253.16
2018-12-02T08:15:55.551Z,100252.61
2018-12-02T08:16:55.962Z,100252.66
2018-12-02T08:17:56.417Z,100252.57
2018-12-02T08:18:56.869Z,100252.40
2018-12-02T08:19:57.294Z,100252.27
2018-12-02T08:20:57.690Z,100251.72
2018-12-02T08:21:58.033Z,100251.94
2018-12-02T08:22:58.738Z,100251.59
2018-12-02T08:23:59.205Z,100251.63
2018-12-02T08:24:59.545Z,100252.42
2018-12-02T08:26:00.159Z,100253.22
2018-12-02T08:27:00.582Z,100253.94
2018-12-02T08:28:01.103Z,100254.39
2018-12-02T08:29:01.512Z,100255.28
2018-12-02T08:30:02.355Z,100256.24
2018-12-02T08:31:02.744Z,100257.20
2018-12-02T08:32:03.147Z,100258.34
2018-12-02T08:33:03.494Z,100259.81
2018-12-02T08:34:04.062Z,100261.11
2018-12-02T08:35:04.489Z,100262.75
2018-12-02T08:36:03.933Z,100264.05
2018-12-02T08:37:05.458Z,100265.52
2018-12-02T08:38:05.970Z,100266.23
2018-12-02T08:39:06.550Z,100267.45
2018-12-02T08:40:06.938Z,100267.95
2018-12-02T08:41:07.430Z,100269.59
2018-12-02T08:42:08.161Z,100270.05
2018-12-02T08:43:08.695Z,100271.44
2018-12-02T08:44:09.123Z,100272.33
2018-12-02T08:45:09.392Z,100273.00
2018-12-02T08:46:09.848Z,100273.88
2018-12-02T08:47:10.290Z,100274.37
2018-12-02T08:48:10.916Z,100275.09
2018-12-02T08:49:11.468Z,100276.22
2018-12-02T08:50:12.283Z,100276.60
2018-12-02T08:51:12.742Z,100277.66
2018-12-02T08:52:13.197Z,100278.37
2018-12-02T08:53:13.739Z,100279.50
2018-12-02T08:54:14.149Z,100280.05
2018-12-02T08:55:14.687Z,100280.55
2018-12-02T08:56:15.085Z,100281.59
2018-12-02T08:57:15.634Z,100281.89
2018-12-02T08:58:16.033Z,100282.81
2018-12-02T08:59:16.457Z,100283.27
2018-12-02T09:00:16.838Z,100283.64
2018-12-02T09:01:16.904Z,100284.02
2018-12-02T09:01:25.408Z,100296.05
2018-12-02T09:02:26.901Z,100296.05
2018-12-02T09:03:27.308Z,100295.38
2018-12-02T09:04:27.747Z,100295.43
2018-12-02T09:05:28.132Z,100295.59
2018-12-02T09:06:28.566Z,100295.63
2018-12-02T09:07:29.109Z,100295.33
2018-12-02T09:08:29.994Z,100295.03
2018-12-02T09:09:30.376Z,100295.16
2018-12-02T09:10:30.884Z,100295.06
2018-12-02T09:11:31.324Z,100294.47
2018-12-02T09:12:32.129Z,100292.82
2018-12-02T09:13:32.573Z,100291.92
2018-12-02T09:14:33.152Z,100292.00
2018-12-02T09:15:33.567Z,100291.53
2018-12-02T09:16:33.988Z,100290.69
2018-12-02T09:17:34.819Z,100290.47
2018-12-02T09:18:35.253Z,100289.78
2018-12-02T09:19:36.272Z,100288.73
2018-12-02T09:20:36.798Z,100287.76
2018-12-02T09:21:37.235Z,100286.65
2018-12-02T09:22:37.600Z,100286.02
2018-12-02T09:23:37.944Z,100284.80
2018-12-02T09:24:38.262Z,100283.73
2018-12-02T09:25:38.814Z,100282.84
2018-12-02T09:26:39.294Z,100282.12
2018-12-02T09:27:39.664Z,100281.31
2018-12-02T09:28:40.274Z,100280.25
2018-12-02T09:29:39.550Z,100279.70
2018-12-02T09:30:40.123Z,100278.05
2018-12-02T09:31:41.650Z,100277.16
2018-12-02T09:32:42.069Z,100275.68
2018-12-02T09:33:42.505Z,100273.65
2018-12-02T09:34:43.108Z,100272.84
2018-12-02T09:35:43.766Z,100271.45
2018-12-02T09:36:44.202Z,100269.84
2018-12-02T09:37:44.945Z,100268.03
2018-12-02T09:38:45.445Z,100266.92
2018-12-02T09:39:45.901Z,100265.58
2018-12-02T09:40:46.441Z,100264.31
2018-12-02T09:41:46.937Z,100262.75
2018-12-02T09:42:47.434Z,100262.23
2018-12-02T09:43:48.063Z,100261.02
2018-12-02T09:44:48.562Z,100260.67
2018-12-02T09:45:49.074Z,100259.36
2018-12-02T09:46:49.494Z,100258.30
2018-12-02T09:46:57.893Z,100249.58
2018-12-02T09:47:58.718Z,100249.16
2018-12-02T09:48:59.241Z,100249.59
2018-12-02T09:49:59.917Z,100249.71
2018-12-02T09:51:00.404Z,100250.05
2018-12-02T09:52:00.788Z,100249.80
2018-12-02T09:53:02.295Z,100250.14
2018-12-02T09:54:01.818Z,100250.48
2018-12-02T09:55:02.323Z,100250.56
2018-12-02T09:56:02.797Z,100250.73
2018-12-02T09:57:03.534Z,100251.73
2018-12-02T09:58:04.074Z,100252.20
2018-12-02T09:59:04.588Z,100252.07
2018-12-02T10:00:04.963Z,100252.36
2018-12-02T10:01:04.996Z,100253.16
2018-12-02T10:02:06.610Z,100253.44
2018-12-02T10:03:05.851Z,100253.81
2018-12-02T10:04:06.494Z,100254.19
2018-12-02T10:05:06.856Z,100254.43
2018-12-02T10:06:07.733Z,100254.97
2018-12-02T10:07:08.075Z,100255.52
2018-12-02T10:08:08.422Z,100256.31
2018-12-02T10:09:08.142Z,100256.94
2018-12-02T10:10:09.505Z,100258.06
2018-12-02T10:11:08.704Z,100258.78
2018-12-02T10:12:10.033Z,100259.23
2018-12-02T10:13:10.040Z,100259.19
2018-12-02T10:14:11.015Z,100259.47
2018-12-02T10:15:11.274Z,100259.92
2018-12-02T10:16:15.697Z,100259.88
2018-12-02T10:17:11.399Z,100259.66
2018-12-02T10:18:12.987Z,100259.60
2018-12-02T10:19:13.539Z,100258.67
2018-12-02T10:20:13.815Z,100258.20
2018-12-02T10:21:14.608Z,100257.30
2018-12-02T10:22:15.464Z,100257.37
2018-12-02T10:23:16.013Z,100257.23
2018-12-02T10:24:16.456Z,100257.09
2018-12-02T10:25:16.997Z,100256.42
2018-12-02T10:26:16.167Z,100256.19
2018-12-02T10:27:17.442Z,100255.52
2018-12-02T10:28:17.727Z,100254.34
2018-12-02T10:29:18.497Z,100253.40
2018-12-02T10:30:19.158Z,100252.70
2018-12-02T10:30:28.236Z,100246.94
2018-12-02T10:31:29.531Z,100246.52
2018-12-02T10:32:30.469Z,100246.78
2018-12-02T10:33:30.570Z,100246.78
2018-12-02T10:34:31.076Z,100246.23
2018-12-02T10:35:31.352Z,100246.27
2018-12-02T10:36:31.776Z,100245.43
2018-12-02T10:37:31.932Z,100244.84
2018-12-02T10:38:32.121Z,100244.41
2018-12-02T10:39:32.233Z,100244.70
2018-12-02T10:40:32.804Z,100244.35
2018-12-02T10:41:31.776Z,100242.95
2018-12-02T10:42:33.278Z,100242.61
2018-12-02T10:43:33.439Z,100242.73
2018-12-02T10:44:33.857Z,100242.69
2018-12-02T10:45:34.049Z,100242.80
2018-12-02T10:46:34.499Z,100242.33
2018-12-02T10:47:34.765Z,100241.77
2018-12-02T10:48:35.077Z,100239.94
2018-12-02T10:49:35.473Z,100239.88
2018-12-02T10:50:35.945Z,100239.31
2018-12-02T10:51:36.445Z,100238.75
2018-12-02T10:52:36.684Z,100238.16
2018-12-02T10:53:36.892Z,100238.27
2018-12-02T10:54:37.179Z,100237.83
2018-12-02T10:55:37.452Z,100237.18
2018-12-02T10:56:37.949Z,100237.08
2018-12-02T10:57:37.969Z,100236.51
2018-12-02T10:58:38.213Z,100236.00
2018-12-02T10:59:38.792Z,100235.67
2018-12-02T11:00:39.204Z,100234.98
2018-12-02T11:01:39.548Z,100235.02
2018-12-02T11:02:39.564Z,100234.70
2018-12-02T11:03:39.824Z,100233.67
2018-12-02T11:04:40.173Z,100233.61
2018-12-02T11:05:40.593Z,100232.67
2018-12-02T11:06:40.888Z,100232.23
2018-12-02T11:07:41.319Z,100231.58
2018-12-02T11:08:41.403Z,100231.22
2018-12-02T11:09:41.814Z,100231.11
2018-12-02T11:10:42.017Z,100230.66
2018-12-02T11:11:42.383Z,100230.38
2018-12-02T11:12:42.665Z,100229.77
2018-12-02T11:13:42.873Z,100229.19
2018-12-02T11:14:43.139Z,100229.71
2018-12-02T11:14:52.066Z,100229.48
2018-12-02T11:15:53.451Z,100229.27
2018-12-02T11:16:53.793Z,100229.48
2018-12-02T11:17:54.259Z,100229.56
2018-12-02T11:18:54.727Z,100230.03